Bethlehem, Kentucky
Current Conditions -  °F | °C
As of 7:53 PM on Sunday 21 Dec 2014 (Local Time) from KFFT Reporting Station
Clear Clear  
Wind Chill: 26°   Ceiling: Unl
Heat Index: 32°   Visibility: 10mi
Dew Point: 27°   Wind: 7mph
Humidity: 82%   Direction: 70°ENE
Pressure: 30.13"   Gusts: NA
Location:  38.4°N, 85.07°W
Report Text: KFFT 220053Z AUTO 07006KT 10SM CLR 00/M03 A3013 RMK AO2 SLP212 T00001028
Loading
Personal Weather Stations






























Interactive Weather Map New forecast layout! Learn more

10-Day Weather Forecast

Advertisements
Track Severe Weather on mobile